sensor_id;sensor_type;location;lat;lon;timestamp;temperature;humidity
51783;DHT22;37845;53.196;5.638;2023-05-09T04:14:32;14.20;99.90
51783;DHT22;37845;53.196;5.638;2023-05-09T04:17:15;14.20;99.90
51783;DHT22;37845;53.196;5.638;2023-05-09T04:19:43;13.30;99.90
51783;DHT22;37845;53.196;5.638;2023-05-09T04:22:09;14.30;99.90
51783;DHT22;37845;53.196;5.638;2023-05-09T04:24:35;14.20;99.90
51783;DHT22;37845;53.196;5.638;2023-05-09T04:27:06;14.20;99.90
51783;DHT22;37845;53.196;5.638;2023-05-09T04:29:32;14.20;99.90
51783;DHT22;37845;53.196;5.638;2023-05-09T04:32:04;14.20;99.90
51783;DHT22;37845;53.196;5.638;2023-05-09T04:34:30;14.20;99.90
51783;DHT22;37845;53.196;5.638;2023-05-09T04:36:56;14.20;99.90
51783;DHT22;37845;53.196;5.638;2023-05-09T04:39:24;14.20;99.90
51783;DHT22;37845;53.196;5.638;2023-05-09T04:42:08;14.20;99.90
51783;DHT22;37845;53.196;5.638;2023-05-09T04:44:33;14.10;99.90
51783;DHT22;37845;53.196;5.638;2023-05-09T04:47:00;14.30;99.90
51783;DHT22;37845;53.196;5.638;2023-05-09T04:49:25;14.30;99.90
51783;DHT22;37845;53.196;5.638;2023-05-09T04:51:51;14.20;99.90
51783;DHT22;37845;53.196;5.638;2023-05-09T04:54:17;14.30;99.90
51783;DHT22;37845;53.196;5.638;2023-05-09T04:56:43;14.30;99.90
51783;DHT22;37845;53.196;5.638;2023-05-09T04:59:08;14.30;99.90
51783;DHT22;37845;53.196;5.638;2023-05-09T05:01:34;14.30;99.90
51783;DHT22;37845;53.196;5.638;2023-05-09T05:04:00;15.10;99.90
51783;DHT22;37845;53.196;5.638;2023-05-09T05:06:31;14.30;99.90
51783;DHT22;37845;53.196;5.638;2023-05-09T05:08:57;14.40;99.90
51783;DHT22;37845;53.196;5.638;2023-05-09T05:11:26;14.40;99.90
51783;DHT22;37845;53.196;5.638;2023-05-09T05:13:51;14.40;99.90
51783;DHT22;37845;53.196;5.638;2023-05-09T05:16:17;14.20;99.90
51783;DHT22;37845;53.196;5.638;2023-05-09T05:18:43;14.00;99.90
51783;DHT22;37845;53.196;5.638;2023-05-09T05:21:09;14.50;99.90
51783;DHT22;37845;53.196;5.638;2023-05-09T05:23:34;14.50;99.90
51783;DHT22;37845;53.196;5.638;2023-05-09T05:26:06;13.70;99.90
51783;DHT22;37845;53.196;5.638;2023-05-09T05:28:32;14.60;99.90
51783;DHT22;37845;53.196;5.638;2023-05-09T05:33:46;14.60;99.90
51783;DHT22;37845;53.196;5.638;2023-05-09T05:36:16;13.90;99.90
51783;DHT22;37845;53.196;5.638;2023-05-09T05:38:45;14.60;99.90
51783;DHT22;37845;53.196;5.638;2023-05-09T05:41:18;14.60;99.90
51783;DHT22;37845;53.196;5.638;2023-05-09T05:43:45;14.60;99.90
51783;DHT22;37845;53.196;5.638;2023-05-09T05:46:18;14.50;99.90
51783;DHT22;37845;53.196;5.638;2023-05-09T05:48:43;14.70;99.90
51783;DHT22;37845;53.196;5.638;2023-05-09T05:51:09;14.60;99.90
51783;DHT22;37845;53.196;5.638;2023-05-09T05:53:35;14.70;99.90
51783;DHT22;37845;53.196;5.638;2023-05-09T05:56:03;14.70;99.90
51783;DHT22;37845;53.196;5.638;2023-05-09T05:58:32;14.50;99.90
51783;DHT22;37845;53.196;5.638;2023-05-09T06:00:58;14.70;99.90
51783;DHT22;37845;53.196;5.638;2023-05-09T06:03:35;15.60;99.90
51783;DHT22;37845;53.196;5.638;2023-05-09T06:06:00;14.80;99.90
51783;DHT22;37845;53.196;5.638;2023-05-09T06:08:26;14.80;99.90
51783;DHT22;37845;53.196;5.638;2023-05-09T06:10:51;14.80;99.90
51783;DHT22;37845;53.196;5.638;2023-05-09T06:13:17;15.00;99.90
51783;DHT22;37845;53.196;5.638;2023-05-09T06:15:43;14.80;99.90
51783;DHT22;37845;53.196;5.638;2023-05-09T06:18:08;14.80;99.90
51783;DHT22;37845;53.196;5.638;2023-05-09T06:20:37;14.80;99.90
51783;DHT22;37845;53.196;5.638;2023-05-09T06:23:02;14.80;99.90
51783;DHT22;37845;53.196;5.638;2023-05-09T06:25:28;14.90;99.90
51783;DHT22;37845;53.196;5.638;2023-05-09T06:27:53;14.90;99.90
51783;DHT22;37845;53.196;5.638;2023-05-09T06:30:19;14.90;99.90
51783;DHT22;37845;53.196;5.638;2023-05-09T06:32:45;14.90;99.90
51783;DHT22;37845;53.196;5.638;2023-05-09T06:35:10;14.90;99.90
51783;DHT22;37845;53.196;5.638;2023-05-09T06:37:36;14.90;99.90
51783;DHT22;37845;53.196;5.638;2023-05-09T06:40:02;15.00;99.90
51783;DHT22;37845;53.196;5.638;2023-05-09T06:42:27;15.00;99.90
51783;DHT22;37845;53.196;5.638;2023-05-09T06:44:57;15.10;99.90
51783;DHT22;37845;53.196;5.638;2023-05-09T06:47:22;15.10;99.90
51783;DHT22;37845;53.196;5.638;2023-05-09T06:49:48;15.20;99.90
51783;DHT22;37845;53.196;5.638;2023-05-09T06:52:14;15.20;99.90
51783;DHT22;37845;53.196;5.638;2023-05-09T06:54:40;15.20;99.90
51783;DHT22;37845;53.196;5.638;2023-05-09T06:57:06;15.20;99.90
51783;DHT22;37845;53.196;5.638;2023-05-09T06:59:32;15.20;99.90
51783;DHT22;37845;53.196;5.638;2023-05-09T07:01:58;15.30;99.90
51783;DHT22;37845;53.196;5.638;2023-05-09T07:04:23;15.30;99.90
51783;DHT22;37845;53.196;5.638;2023-05-09T07:06:49;15.20;99.90
51783;DHT22;37845;53.196;5.638;2023-05-09T07:09:15;15.30;99.90
51783;DHT22;37845;53.196;5.638;2023-05-09T07:11:43;15.30;99.90
51783;DHT22;37845;53.196;5.638;2023-05-09T07:14:10;15.30;99.90
51783;DHT22;37845;53.196;5.638;2023-05-09T07:16:35;15.40;99.90
51783;DHT22;37845;53.196;5.638;2023-05-09T07:19:01;15.30;99.90
51783;DHT22;37845;53.196;5.638;2023-05-09T07:21:27;15.30;99.90
51783;DHT22;37845;53.196;5.638;2023-05-09T07:23:52;15.30;99.90
51783;DHT22;37845;53.196;5.638;2023-05-09T07:26:18;15.30;99.90
51783;DHT22;37845;53.196;5.638;2023-05-09T07:28:43;15.30;99.90
51783;DHT22;37845;53.196;5.638;2023-05-09T07:31:09;15.30;99.90
51783;DHT22;37845;53.196;5.638;2023-05-09T07:33:35;15.30;99.90
51783;DHT22;37845;53.196;5.638;2023-05-09T07:36:00;15.20;99.90
51783;DHT22;37845;53.196;5.638;2023-05-09T07:38:26;15.30;99.90
51783;DHT22;37845;53.196;5.638;2023-05-09T07:40:52;15.20;99.90
51783;DHT22;37845;53.196;5.638;2023-05-09T07:43:17;15.20;99.90
51783;DHT22;37845;53.196;5.638;2023-05-09T07:45:43;15.30;99.90
51783;DHT22;37845;53.196;5.638;2023-05-09T07:48:09;15.20;99.90
51783;DHT22;37845;53.196;5.638;2023-05-09T07:50:34;15.20;99.90
51783;DHT22;37845;53.196;5.638;2023-05-09T07:53:00;15.30;99.90
51783;DHT22;37845;53.196;5.638;2023-05-09T07:55:26;15.20;99.90
51783;DHT22;37845;53.196;5.638;2023-05-09T07:57:51;15.20;99.90
51783;DHT22;37845;53.196;5.638;2023-05-09T08:00:17;15.30;99.90
51783;DHT22;37845;53.196;5.638;2023-05-09T08:02:49;15.30;99.90
51783;DHT22;37845;53.196;5.638;2023-05-09T08:05:15;15.20;99.90
51783;DHT22;37845;53.196;5.638;2023-05-09T08:07:41;15.30;99.90
51783;DHT22;37845;53.196;5.638;2023-05-09T08:10:07;15.30;99.90
51783;DHT22;37845;53.196;5.638;2023-05-09T08:12:33;15.40;99.90
51783;DHT22;37845;53.196;5.638;2023-05-09T08:14:58;15.40;99.90
51783;DHT22;37845;53.196;5.638;2023-05-09T08:17:24;15.40;99.90
51783;DHT22;37845;53.196;5.638;2023-05-09T08:19:49;15.40;99.90
51783;DHT22;37845;53.196;5.638;2023-05-09T08:22:18;15.40;99.90
51783;DHT22;37845;53.196;5.638;2023-05-09T08:24:45;15.30;99.90
51783;DHT22;37845;53.196;5.638;2023-05-09T08:27:11;15.40;99.90
51783;DHT22;37845;53.196;5.638;2023-05-09T08:29:38;15.40;99.90
51783;DHT22;37845;53.196;5.638;2023-05-09T08:32:04;15.40;99.90
51783;DHT22;37845;53.196;5.638;2023-05-09T08:34:30;15.40;99.90
51783;DHT22;37845;53.196;5.638;2023-05-09T08:37:02;15.40;99.90
51783;DHT22;37845;53.196;5.638;2023-05-09T08:39:31;15.40;99.90
51783;DHT22;37845;53.196;5.638;2023-05-09T08:41:59;15.40;99.90
51783;DHT22;37845;53.196;5.638;2023-05-09T08:44:25;15.40;99.90
51783;DHT22;37845;53.196;5.638;2023-05-09T08:46:53;15.40;99.90
51783;DHT22;37845;53.196;5.638;2023-05-09T08:49:20;15.40;99.90
51783;DHT22;37845;53.196;5.638;2023-05-09T08:51:46;15.40;99.90
51783;DHT22;37845;53.196;5.638;2023-05-09T08:54:12;15.50;99.90
51783;DHT22;37845;53.196;5.638;2023-05-09T08:56:38;15.50;99.90
51783;DHT22;37845;53.196;5.638;2023-05-09T08:59:04;15.50;99.90
51783;DHT22;37845;53.196;5.638;2023-05-09T09:01:32;15.50;99.90
51783;DHT22;37845;53.196;5.638;2023-05-09T09:03:57;15.60;99.90
51783;DHT22;37845;53.196;5.638;2023-05-09T09:06:24;15.60;99.90
51783;DHT22;37845;53.196;5.638;2023-05-09T09:08:50;15.60;99.90
51783;DHT22;37845;53.196;5.638;2023-05-09T09:11:17;15.70;99.90
51783;DHT22;37845;53.196;5.638;2023-05-09T09:13:43;15.70;99.90
51783;DHT22;37845;53.196;5.638;2023-05-09T09:16:12;15.70;99.90
51783;DHT22;37845;53.196;5.638;2023-05-09T09:18:41;15.70;99.90
51783;DHT22;37845;53.196;5.638;2023-05-09T09:21:09;15.80;99.90
51783;DHT22;37845;53.196;5.638;2023-05-09T09:23:37;15.80;99.90
51783;DHT22;37845;53.196;5.638;2023-05-09T09:26:03;15.80;99.90
51783;DHT22;37845;53.196;5.638;2023-05-09T10:57:43;15.50;99.90
51783;DHT22;37845;53.196;5.638;2023-05-09T11:00:17;15.50;99.90
51783;DHT22;37845;53.196;5.638;2023-05-09T11:05:41;15.40;99.90
51783;DHT22;37845;53.196;5.638;2023-05-09T11:08:17;15.10;99.90
51783;DHT22;37845;53.196;5.638;2023-05-09T11:10:43;15.40;99.90
51783;DHT22;37845;53.196;5.638;2023-05-09T11:13:08;15.30;99.90
51783;DHT22;37845;53.196;5.638;2023-05-09T11:15:48;15.30;99.90
51783;DHT22;37845;53.196;5.638;2023-05-09T11:18:14;15.40;99.90
51783;DHT22;37845;53.196;5.638;2023-05-09T11:20:44;15.40;99.90
51783;DHT22;37845;53.196;5.638;2023-05-09T11:23:10;15.40;99.90
51783;DHT22;37845;53.196;5.638;2023-05-09T11:25:37;15.50;99.90
51783;DHT22;37845;53.196;5.638;2023-05-09T11:28:06;15.50;99.90
51783;DHT22;37845;53.196;5.638;2023-05-09T11:30:37;15.50;99.90
51783;DHT22;37845;53.196;5.638;2023-05-09T11:33:03;15.50;99.90
51783;DHT22;37845;53.196;5.638;2023-05-09T11:35:31;15.50;99.90
51783;DHT22;37845;53.196;5.638;2023-05-09T11:37:58;15.50;99.90
51783;DHT22;37845;53.196;5.638;2023-05-09T11:40:31;15.50;99.90
51783;DHT22;37845;53.196;5.638;2023-05-09T11:42:58;15.60;99.90
51783;DHT22;37845;53.196;5.638;2023-05-09T11:45:25;15.50;99.90
51783;DHT22;37845;53.196;5.638;2023-05-09T11:47:54;15.60;99.90
51783;DHT22;37845;53.196;5.638;2023-05-09T11:50:21;15.60;99.90
51783;DHT22;37845;53.196;5.638;2023-05-09T11:52:47;15.60;99.90
51783;DHT22;37845;53.196;5.638;2023-05-09T11:55:14;15.60;99.90
51783;DHT22;37845;53.196;5.638;2023-05-09T11:57:41;15.60;99.90
51783;DHT22;37845;53.196;5.638;2023-05-09T12:00:07;15.60;99.90
51783;DHT22;37845;53.196;5.638;2023-05-09T12:02:37;15.70;99.90
51783;DHT22;37845;53.196;5.638;2023-05-09T12:05:07;15.70;99.90
51783;DHT22;37845;53.196;5.638;2023-05-09T12:07:34;15.70;99.90
51783;DHT22;37845;53.196;5.638;2023-05-09T12:10:00;15.70;99.90
51783;DHT22;37845;53.196;5.638;2023-05-09T12:12:35;15.70;99.90
51783;DHT22;37845;53.196;5.638;2023-05-09T12:15:02;15.70;99.90
51783;DHT22;37845;53.196;5.638;2023-05-09T12:17:34;15.70;99.90
51783;DHT22;37845;53.196;5.638;2023-05-09T12:20:00;15.70;99.90
51783;DHT22;37845;53.196;5.638;2023-05-09T12:22:27;15.70;99.90
51783;DHT22;37845;53.196;5.638;2023-05-09T12:24:55;15.70;99.90
51783;DHT22;37845;53.196;5.638;2023-05-09T12:27:22;15.60;99.90
51783;DHT22;37845;53.196;5.638;2023-05-09T12:29:47;15.60;99.90
51783;DHT22;37845;53.196;5.638;2023-05-09T12:32:14;15.50;99.90
51783;DHT22;37845;53.196;5.638;2023-05-09T12:34:46;15.50;99.90
51783;DHT22;37845;53.196;5.638;2023-05-09T12:37:16;15.50;99.90
51783;DHT22;37845;53.196;5.638;2023-05-09T12:40:04;15.50;99.90
51783;DHT22;37845;53.196;5.638;2023-05-09T12:42:32;15.40;99.90
51783;DHT22;37845;53.196;5.638;2023-05-09T12:44:59;15.40;99.90
51783;DHT22;37845;53.196;5.638;2023-05-09T12:47:29;15.30;99.90
51783;DHT22;37845;53.196;5.638;2023-05-09T12:50:02;15.30;99.90
51783;DHT22;37845;53.196;5.638;2023-05-09T12:52:36;15.30;99.90
51783;DHT22;37845;53.196;5.638;2023-05-09T12:55:05;15.30;99.90
51783;DHT22;37845;53.196;5.638;2023-05-09T12:57:32;15.30;99.90
51783;DHT22;37845;53.196;5.638;2023-05-09T12:59:58;15.40;99.90
51783;DHT22;37845;53.196;5.638;2023-05-09T13:02:24;15.40;99.90
51783;DHT22;37845;53.196;5.638;2023-05-09T13:05:03;15.40;99.90
51783;DHT22;37845;53.196;5.638;2023-05-09T13:07:36;15.40;99.90
51783;DHT22;37845;53.196;5.638;2023-05-09T13:10:02;15.30;99.90
51783;DHT22;37845;53.196;5.638;2023-05-09T13:12:34;15.40;99.90
51783;DHT22;37845;53.196;5.638;2023-05-09T13:15:02;15.40;99.90
51783;DHT22;37845;53.196;5.638;2023-05-09T13:17:28;15.10;99.90
51783;DHT22;37845;53.196;5.638;2023-05-09T13:19:54;14.70;99.90
51783;DHT22;37845;53.196;5.638;2023-05-09T13:22:20;15.50;99.90
51783;DHT22;37845;53.196;5.638;2023-05-09T13:24:46;15.50;99.90
51783;DHT22;37845;53.196;5.638;2023-05-09T13:27:12;15.60;99.90
51783;DHT22;37845;53.196;5.638;2023-05-09T13:29:37;15.60;99.90
51783;DHT22;37845;53.196;5.638;2023-05-09T13:32:03;15.50;99.90
51783;DHT22;37845;53.196;5.638;2023-05-09T13:34:29;15.50;99.90
51783;DHT22;37845;53.196;5.638;2023-05-09T13:36:54;15.50;99.90
51783;DHT22;37845;53.196;5.638;2023-05-09T13:39:20;15.50;99.90
51783;DHT22;37845;53.196;5.638;2023-05-09T13:41:46;15.50;99.90
51783;DHT22;37845;53.196;5.638;2023-05-09T13:44:13;15.50;99.90
51783;DHT22;37845;53.196;5.638;2023-05-09T13:46:38;15.50;99.90
51783;DHT22;37845;53.196;5.638;2023-05-09T13:49:04;15.50;99.90
51783;DHT22;37845;53.196;5.638;2023-05-09T13:51:30;15.50;99.90
51783;DHT22;37845;53.196;5.638;2023-05-09T13:53:56;15.50;99.90
51783;DHT22;37845;53.196;5.638;2023-05-09T13:56:22;15.50;99.90
51783;DHT22;37845;53.196;5.638;2023-05-09T13:58:48;15.50;99.90
51783;DHT22;37845;53.196;5.638;2023-05-09T14:01:13;15.50;99.90
51783;DHT22;37845;53.196;5.638;2023-05-09T14:03:40;15.50;99.90
51783;DHT22;37845;53.196;5.638;2023-05-09T14:06:06;15.50;99.90
51783;DHT22;37845;53.196;5.638;2023-05-09T14:08:33;15.50;99.90
51783;DHT22;37845;53.196;5.638;2023-05-09T14:10:59;15.50;99.90
51783;DHT22;37845;53.196;5.638;2023-05-09T14:13:25;15.50;99.90
51783;DHT22;37845;53.196;5.638;2023-05-09T14:15:50;15.50;99.90
51783;DHT22;37845;53.196;5.638;2023-05-09T14:18:19;15.60;99.90
51783;DHT22;37845;53.196;5.638;2023-05-09T14:20:44;14.80;99.90
51783;DHT22;37845;53.196;5.638;2023-05-09T14:23:10;15.60;99.90
51783;DHT22;37845;53.196;5.638;2023-05-09T14:25:36;15.60;99.90
51783;DHT22;37845;53.196;5.638;2023-05-09T14:28:01;15.60;99.90
51783;DHT22;37845;53.196;5.638;2023-05-09T14:30:27;15.60;99.90
51783;DHT22;37845;53.196;5.638;2023-05-09T14:32:53;15.60;99.90
51783;DHT22;37845;53.196;5.638;2023-05-09T14:35:18;15.70;99.90
51783;DHT22;37845;53.196;5.638;2023-05-09T14:37:44;15.60;99.90
51783;DHT22;37845;53.196;5.638;2023-05-09T14:40:10;15.60;99.90
51783;DHT22;37845;53.196;5.638;2023-05-09T14:42:35;15.60;99.90
51783;DHT22;37845;53.196;5.638;2023-05-09T14:45:01;15.60;99.90
51783;DHT22;37845;53.196;5.638;2023-05-09T14:47:27;15.60;99.90
51783;DHT22;37845;53.196;5.638;2023-05-09T14:49:52;15.60;99.90
51783;DHT22;37845;53.196;5.638;2023-05-09T14:52:18;15.60;99.90
51783;DHT22;37845;53.196;5.638;2023-05-09T14:54:44;15.60;99.90
51783;DHT22;37845;53.196;5.638;2023-05-09T14:57:09;15.60;99.90
51783;DHT22;37845;53.196;5.638;2023-05-09T14:59:35;15.60;99.90
51783;DHT22;37845;53.196;5.638;2023-05-09T15:02:01;15.60;99.90
51783;DHT22;37845;53.196;5.638;2023-05-09T15:04:27;15.60;99.90
51783;DHT22;37845;53.196;5.638;2023-05-09T15:06:55;15.60;99.90
51783;DHT22;37845;53.196;5.638;2023-05-09T15:09:21;15.60;99.90
51783;DHT22;37845;53.196;5.638;2023-05-09T15:11:47;15.60;99.90
51783;DHT22;37845;53.196;5.638;2023-05-09T15:14:15;15.70;99.90
51783;DHT22;37845;53.196;5.638;2023-05-09T15:16:41;15.70;99.90
51783;DHT22;37845;53.196;5.638;2023-05-09T15:19:07;15.70;99.90
51783;DHT22;37845;53.196;5.638;2023-05-09T15:21:32;15.70;99.90
51783;DHT22;37845;53.196;5.638;2023-05-09T15:23:59;15.70;99.90
51783;DHT22;37845;53.196;5.638;2023-05-09T15:26:28;15.70;99.90
51783;DHT22;37845;53.196;5.638;2023-05-09T15:28:54;15.70;99.90
51783;DHT22;37845;53.196;5.638;2023-05-09T15:31:20;15.70;99.90
51783;DHT22;37845;53.196;5.638;2023-05-09T15:33:49;15.70;99.90
51783;DHT22;37845;53.196;5.638;2023-05-09T15:36:14;15.70;99.90
51783;DHT22;37845;53.196;5.638;2023-05-09T15:38:48;15.70;99.90
51783;DHT22;37845;53.196;5.638;2023-05-09T15:41:14;15.70;99.90
51783;DHT22;37845;53.196;5.638;2023-05-09T15:43:40;15.70;99.90
51783;DHT22;37845;53.196;5.638;2023-05-09T15:46:11;15.70;99.90
51783;DHT22;37845;53.196;5.638;2023-05-09T15:48:45;16.70;99.90
51783;DHT22;37845;53.196;5.638;2023-05-09T15:51:39;16.00;99.90
51783;DHT22;37845;53.196;5.638;2023-05-09T15:54:04;15.70;99.90
51783;DHT22;37845;53.196;5.638;2023-05-09T15:56:30;15.70;99.90
51783;DHT22;37845;53.196;5.638;2023-05-09T15:59:04;15.70;99.90
51783;DHT22;37845;53.196;5.638;2023-05-09T16:01:30;15.70;99.90
51783;DHT22;37845;53.196;5.638;2023-05-09T16:03:56;15.60;99.90
51783;DHT22;37845;53.196;5.638;2023-05-09T16:06:25;15.70;99.90
51783;DHT22;37845;53.196;5.638;2023-05-09T16:08:54;15.20;99.90
51783;DHT22;37845;53.196;5.638;2023-05-09T16:11:26;15.60;99.90
51783;DHT22;37845;53.196;5.638;2023-05-09T16:13:52;15.50;99.90
51783;DHT22;37845;53.196;5.638;2023-05-09T16:16:18;14.80;99.90
51783;DHT22;37845;53.196;5.638;2023-05-09T16:18:43;15.40;99.90
51783;DHT22;37845;53.196;5.638;2023-05-09T16:21:09;15.50;99.90
51783;DHT22;37845;53.196;5.638;2023-05-09T16:23:58;15.40;99.90
51783;DHT22;37845;53.196;5.638;2023-05-09T16:26:31;15.40;99.90
51783;DHT22;37845;53.196;5.638;2023-05-09T16:28:56;15.40;99.90
51783;DHT22;37845;53.196;5.638;2023-05-09T16:31:27;15.30;99.90
51783;DHT22;37845;53.196;5.638;2023-05-09T16:33:55;15.30;99.90
51783;DHT22;37845;53.196;5.638;2023-05-09T17:57:22;15.40;99.90
51783;DHT22;37845;53.196;5.638;2023-05-09T17:59:59;15.30;99.90
51783;DHT22;37845;53.196;5.638;2023-05-09T18:02:27;15.40;99.90
51783;DHT22;37845;53.196;5.638;2023-05-09T18:04:53;15.30;99.90
51783;DHT22;37845;53.196;5.638;2023-05-09T18:07:19;15.30;99.90
51783;DHT22;37845;53.196;5.638;2023-05-09T18:09:45;15.30;99.90
51783;DHT22;37845;53.196;5.638;2023-05-09T18:12:10;16.40;99.90
51783;DHT22;37845;53.196;5.638;2023-05-09T18:14:39;15.20;99.90
51783;DHT22;37845;53.196;5.638;2023-05-09T18:17:05;15.20;99.90
51783;DHT22;37845;53.196;5.638;2023-05-09T18:19:30;15.20;99.90
51783;DHT22;37845;53.196;5.638;2023-05-09T18:21:57;15.20;99.90
51783;DHT22;37845;53.196;5.638;2023-05-09T18:24:23;15.20;99.90
51783;DHT22;37845;53.196;5.638;2023-05-09T18:29:49;15.20;99.90
51783;DHT22;37845;53.196;5.638;2023-05-09T18:32:15;15.20;99.90
51783;DHT22;37845;53.196;5.638;2023-05-09T18:34:42;15.20;99.90
51783;DHT22;37845;53.196;5.638;2023-05-09T18:37:08;15.20;99.90
51783;DHT22;37845;53.196;5.638;2023-05-09T18:39:40;15.20;99.90
51783;DHT22;37845;53.196;5.638;2023-05-09T18:42:07;15.10;99.90
51783;DHT22;37845;53.196;5.638;2023-05-09T18:44:33;15.10;99.90
51783;DHT22;37845;53.196;5.638;2023-05-09T18:47:02;15.10;99.90
51783;DHT22;37845;53.196;5.638;2023-05-09T18:49:28;15.10;99.90
51783;DHT22;37845;53.196;5.638;2023-05-09T18:51:54;15.10;99.90
51783;DHT22;37845;53.196;5.638;2023-05-09T18:54:20;15.10;99.90
51783;DHT22;37845;53.196;5.638;2023-05-09T18:56:46;15.10;99.90
51783;DHT22;37845;53.196;5.638;2023-05-09T18:59:12;15.00;99.90
51783;DHT22;37845;53.196;5.638;2023-05-09T19:01:40;15.00;99.90
51783;DHT22;37845;53.196;5.638;2023-05-09T19:04:08;15.00;99.90
51783;DHT22;37845;53.196;5.638;2023-05-09T19:06:36;15.00;99.90
51783;DHT22;37845;53.196;5.638;2023-05-09T19:09:02;15.00;99.90
51783;DHT22;37845;53.196;5.638;2023-05-09T19:11:28;15.00;99.90
51783;DHT22;37845;53.196;5.638;2023-05-09T19:13:57;15.00;99.90
51783;DHT22;37845;53.196;5.638;2023-05-09T19:16:29;15.30;99.90
51783;DHT22;37845;53.196;5.638;2023-05-09T19:18:55;14.10;99.90
51783;DHT22;37845;53.196;5.638;2023-05-09T19:21:23;14.90;99.90
51783;DHT22;37845;53.196;5.638;2023-05-09T19:23:50;14.90;99.90
51783;DHT22;37845;53.196;5.638;2023-05-09T19:26:16;15.00;99.90
51783;DHT22;37845;53.196;5.638;2023-05-09T23:16:48;13.00;99.90
51783;DHT22;37845;53.196;5.638;2023-05-09T23:19:18;13.60;99.90
51783;DHT22;37845;53.196;5.638;2023-05-09T23:21:44;13.50;99.90
51783;DHT22;37845;53.196;5.638;2023-05-09T23:24:12;13.00;99.90
51783;DHT22;37845;53.196;5.638;2023-05-09T23:26:38;12.90;99.90
51783;DHT22;37845;53.196;5.638;2023-05-09T23:29:07;12.90;99.90
51783;DHT22;37845;53.196;5.638;2023-05-09T23:31:32;13.00;99.90
51783;DHT22;37845;53.196;5.638;2023-05-09T23:34:01;12.90;99.90
51783;DHT22;37845;53.196;5.638;2023-05-09T23:36:33;12.90;99.90
51783;DHT22;37845;53.196;5.638;2023-05-09T23:39:01;12.90;99.90
51783;DHT22;37845;53.196;5.638;2023-05-09T23:41:27;12.90;99.90
51783;DHT22;37845;53.196;5.638;2023-05-09T23:43:53;12.80;99.90
51783;DHT22;37845;53.196;5.638;2023-05-09T23:46:21;12.80;99.90
51783;DHT22;37845;53.196;5.638;2023-05-09T23:48:47;12.80;99.90
